Au Gres, MI (48703)

12:34 PM EDT on September 04, 2015 (GMT -0400)
Pt. Lookout | | Change Station
CLOSE
Current Station
Personal Weather Station
Location: Au Gres, MI
Elevation: 610 ft
Nearby Weather Stations

Elev 610 ft 44.05 °N, 83.58 °W | Updated 47 seconds ago

Overcast
Overcast
71.6 °F
Feels Like 71.6 °F
N
0.0
Wind Variable Wind from ESE
Gusts 0.0 mph

Today
High -- | Low -- °F
--% Chance of Precip.
Yesterday
High -- | Low -- °F
Precip. -- in
7:00 AM 8:05 PM
Waning Gibbous, 58% visible
Pressure 30.06 in
Visibility 5.0 miles
Clouds Scattered Clouds 600 ft
Mostly Cloudy 3800 ft
Overcast 4300 ft
Dew Point 72 °F
Humidity 100%
Rainfall 0.00 in
Snow Depth Not available.
UV 2 out of 12
Pollen 9.70 out of 12
Air Quality Not available.
Flu Activity Not available.
METAR KOSC 041613Z AUTO 10003KT 5SM BR SCT006 BKN038 OVC043 21/21 A3006 RMK AO2 T02130207
Pressure 30.06 in
Visibility 5.0 miles
Clouds Scattered Clouds 600 ft
Mostly Cloudy 3800 ft
Overcast 4300 ft
Dew Point 72 °F
Humidity 100%
Rainfall 0.00 in
Snow Depth Not available.
UV 2 out of 12
Pollen 9.70 out of 12
Air Quality Not available.
Flu Activity Not available.
METAR KOSC 041613Z AUTO 10003KT 5SM BR SCT006 BKN038 OVC043 21/21 A3006 RMK AO2 T02130207
Nowcast | as of 12:00 PM EDT on September 4, 2015

At 1 PM...mostly cloudy. Chance of showers. Temperature 73. Southeast winds 7 mph. At 3 PM...numerous showers and chance of thunderstorms. Temperature 74. Southeast winds 7 mph. At 5 PM...numerous showers and chance of thunderstorms. Temperature 73. Southeast winds 6 mph. At 7 PM...numerous showers and chance of thunderstorms. Temperature 71. Southeast winds 6 mph.

×

10-Day Weather Forecast

×

Almanac

Astronomy

Sep. 04, 2015 Rise Set
Actual Time
Civil Twilight
Nautical Twilight
Astronomical Twilight
Moon
Length of Visible Light
Length of Day
Tomorrow will be .
, % of the Moon is Illuminated

Today's Extremes

State Highs State Lows

Community

WunderPhotos

Upload Photos

1,852,220 photos uploaded!

WunderBlogs® & News

Nearby

Air Quality

  Air Quality AQ Index Pollutant
Not available.

Snow Depth

Station Depth Elevation

Earthquake Activity

City Distance Mag. Time & Date
Minimum magnitude displayed is 2.5.

Coastal Water Temperatures

Place Temperature

Stations

Nearby Weather Stations

Station Location Temp. Windchill Dew Point Humidity Wind Precip. Elev Updated Type